Time;durP1;ratioP1;P1;durP2;ratioP2;P2;SDS_P1;SDS_P2;PMS_P1;PMS_P2;Temp;Humidity;BMP_temperature;BMP_pressure;BME280_temperature;BME280_humidity;BME280_pressure;Samples;Min_cycle;Max_cycle;Signal;HPM_P1;HPM_P2
2021/12/25 00:01:49;;;;;;;11.10;4.53;;;;;;;0.00;77.89;99262.78;1988695;88;27712;-60
2021/12/25 00:04:51;;;;;;;8.05;3.17;;;;;;;-0.13;77.92;99253.41;2012256;88;28216;-60
2021/12/25 00:07:53;;;;;;;5.15;3.30;;;;;;;-0.22;77.98;99250.53;2012280;88;29390;-60
2021/12/25 00:10:56;;;;;;;5.08;3.25;;;;;;;-0.31;78.16;99263.02;2004473;88;31995;-60
2021/12/25 00:13:59;;;;;;;6.33;3.72;;;;;;;-0.35;78.33;99279.76;1974766;90;32967;-60
2021/12/25 00:17:00;;;;;;;9.73;4.30;;;;;;;-0.38;78.33;99294.75;1974799;90;30151;-61
2021/12/25 00:20:04;;;;;;;7.33;3.77;;;;;;;-0.41;78.40;99304.88;1974719;90;27709;-62
2021/12/25 00:23:07;;;;;;;6.15;4.28;;;;;;;-0.41;78.46;99312.77;1973943;90;29494;-60
2021/12/25 00:26:22;;;;;;;7.25;4.12;;;;;;;-0.39;78.64;99323.28;2008755;88;31718;-68
2021/12/25 00:32:41;;;;;;;6.08;3.12;;;;;;;-0.38;78.50;99346.06;2007375;88;30145;-66
2021/12/25 00:35:28;;;;;;;4.78;3.15;;;;;;;-0.42;77.67;99351.84;1974410;90;27623;-68
2021/12/25 00:38:31;;;;;;;4.87;3.25;;;;;;;-0.49;77.29;99361.59;1977088;88;29345;-68
2021/12/25 00:41:33;;;;;;;7.28;3.02;;;;;;;-0.59;76.48;99363.15;1976998;90;32147;-60
2021/12/25 00:44:35;;;;;;;4.47;2.70;;;;;;;-0.72;76.17;99355.47;2000882;88;34233;-70
2021/12/25 00:47:37;;;;;;;6.30;2.90;;;;;;;-0.89;75.52;99371.57;2009490;88;29665;-63
2021/12/25 00:50:39;;;;;;;4.12;2.17;;;;;;;-1.04;75.88;99375.32;2009110;88;27687;-71
2021/12/25 00:53:40;;;;;;;5.28;1.85;;;;;;;-1.17;74.44;99385.63;2008891;88;29853;-71
2021/12/25 00:56:43;;;;;;;3.52;1.25;;;;;;;-1.31;74.99;99391.98;2009125;88;31198;-60
2021/12/25 00:59:45;;;;;;;4.15;1.87;;;;;;;-1.44;74.57;99399.17;2008679;88;34190;-60
2021/12/25 01:02:47;;;;;;;2.77;1.60;;;;;;;-1.59;74.11;99406.86;2007951;88;30723;-60
2021/12/25 01:05:50;;;;;;;4.47;1.85;;;;;;;-1.67;74.49;99419.67;2008921;88;27739;-60
2021/12/25 01:08:52;;;;;;;5.53;2.25;;;;;;;-1.77;74.33;99425.48;2008835;88;29221;-65
2021/12/25 01:11:54;;;;;;;3.10;2.05;;;;;;;-1.82;74.76;99433.44;2008801;88;32088;-60
2021/12/25 01:14:59;;;;;;;5.72;2.10;;;;;;;-1.86;74.46;99439.14;2009016;88;33142;-61
2021/12/25 01:21:49;;;;;;;4.08;2.02;;;;;;;-1.94;74.55;99451.52;2009254;88;27704;-60
2021/12/25 01:28:25;;;;;;;7.17;2.02;;;;;;;-2.03;74.62;99465.62;2009050;88;30828;-60
2021/12/25 01:31:10;;;;;;;5.65;2.52;;;;;;;-2.06;74.68;99467.39;2008314;88;33032;-61
2021/12/25 01:37:20;;;;;;;3.25;2.22;;;;;;;-2.14;74.55;99491.98;2009059;88;27626;-60
2021/12/25 01:50:02;;;;;;;6.17;1.70;;;;;;;-2.19;73.72;99515.22;2006102;88;30851;-60
2021/12/25 01:53:06;;;;;;;3.67;1.90;;;;;;;-2.30;72.88;99524.50;2006819;88;27764;-62
2021/12/25 01:56:08;;;;;;;3.30;1.00;;;;;;;-2.40;72.91;99522.41;2006425;88;29862;-60
2021/12/25 01:59:13;;;;;;;3.12;1.27;;;;;;;-2.48;71.64;99538.21;2006388;88;31039;-59
2021/12/25 02:02:15;;;;;;;1.98;0.90;;;;;;;-2.58;71.89;99525.19;2006841;88;33365;-61
2021/12/25 02:05:17;;;;;;;3.30;1.92;;;;;;;-2.60;72.53;99533.94;2006675;88;30184;-60
2021/12/25 02:08:19;;;;;;;5.25;1.60;;;;;;;-2.64;71.94;99528.28;2006797;88;27758;-60
2021/12/25 02:11:21;;;;;;;3.52;1.45;;;;;;;-2.71;70.63;99539.72;2006917;88;29130;-61
2021/12/25 02:14:24;;;;;;;5.55;1.98;;;;;;;-2.83;70.96;99538.05;2006354;88;33153;-60
2021/12/25 02:17:36;;;;;;;4.90;1.95;;;;;;;-2.92;70.44;99539.45;2006697;88;33000;-64
2021/12/25 02:20:40;;;;;;;4.20;1.60;;;;;;;-2.98;71.02;99540.36;2005081;88;30603;-68
2021/12/25 02:23:38;;;;;;;7.22;2.77;;;;;;;-3.03;71.47;99545.17;2006458;88;27749;-67
2021/12/25 02:26:44;;;;;;;5.67;2.10;;;;;;;-3.08;71.69;99555.69;2007549;88;29077;-71
2021/12/25 02:29:45;;;;;;;;;;;;;;;-3.11;71.75;99571.00;2043216;87;31287;-60
2021/12/25 02:32:47;;;;;;;5.22;2.25;;;;;;;-3.18;71.43;99568.42;2040692;87;33348;-70
2021/12/25 02:35:49;;;;;;;11.45;3.55;;;;;;;-3.25;71.82;99577.61;2012695;88;29867;-60
2021/12/25 02:38:51;;;;;;;4.33;2.17;;;;;;;-3.28;71.99;99575.45;2012624;88;28325;-71
2021/12/25 02:41:53;;;;;;;5.45;2.40;;;;;;;-3.30;72.00;99583.30;2009711;88;29120;-59
2021/12/25 02:44:55;;;;;;;7.60;2.72;;;;;;;-3.33;71.91;99582.45;2009787;88;32329;-60
2021/12/25 02:47:58;;;;;;;5.90;2.17;;;;;;;-3.37;71.95;99575.91;2010092;88;33358;-59
2021/12/25 02:51:00;;;;;;;4.83;1.82;;;;;;;-3.43;71.29;99592.09;1962122;88;30225;-60
2021/12/25 02:54:04;;;;;;;11.50;3.05;;;;;;;-3.46;71.77;99604.77;2009934;88;27668;-67
2021/12/25 02:57:06;;;;;;;5.97;2.10;;;;;;;-3.48;72.09;99602.59;2010231;88;28837;-69
2021/12/25 03:00:09;;;;;;;6.10;1.90;;;;;;;-3.49;71.78;99605.23;2010128;88;32218;-60
2021/12/25 03:03:12;;;;;;;8.08;1.80;;;;;;;-3.53;71.32;99607.86;2009543;88;33787;-59
2021/12/25 03:06:14;;;;;;;5.90;1.55;;;;;;;-3.55;71.37;99610.02;2009480;88;29397;-62
2021/12/25 03:09:15;;;;;;;2.77;1.40;;;;;;;-3.60;71.18;99617.05;2009369;88;27716;-60
2021/12/25 03:12:26;;;;;;;7.12;1.90;;;;;;;-3.64;71.30;99629.28;2009222;88;29924;-60
2021/12/25 03:15:40;;;;;;;6.03;2.22;;;;;;;-3.67;71.62;99631.90;2008977;88;31056;-61
2021/12/25 03:18:38;;;;;;;5.55;1.85;;;;;;;-3.71;71.65;99620.54;2008514;88;34170;-68
2021/12/25 03:21:38;;;;;;;3.95;1.87;;;;;;;-3.75;71.39;99614.91;2009425;88;29338;-59
2021/12/25 03:24:40;;;;;;;6.87;1.77;;;;;;;-3.79;71.62;99618.39;2043748;87;27693;-69
2021/12/25 03:27:44;;;;;;;5.28;1.60;;;;;;;-3.83;71.54;99622.77;2044092;87;28574;-61
2021/12/25 03:30:46;;;;;;;4.75;1.57;;;;;;;-3.86;71.68;99631.05;2043986;87;32337;-59
2021/12/25 03:33:54;;;;;;;6.58;2.37;;;;;;;-3.88;71.87;99630.17;2043681;87;33438;-62
2021/12/25 03:36:55;;;;;;;7.58;1.75;;;;;;;-3.89;71.68;99631.08;2009482;88;29345;-61
2021/12/25 03:39:57;;;;;;;6.17;2.02;;;;;;;-3.92;71.74;99641.09;1979709;89;27695;-61
2021/12/25 03:43:00;;;;;;;8.63;1.87;;;;;;;-3.92;71.85;99652.01;1997727;88;29886;-70
2021/12/25 03:46:01;;;;;;;2.67;1.62;;;;;;;-3.96;71.78;99657.66;2018663;88;31381;-75
2021/12/25 03:49:25;;;;;;;5.00;1.80;;;;;;;-3.94;71.97;99663.77;2049677;86;33416;-76
2021/12/25 03:58:53;;;;;;;5.25;1.75;;;;;;;-4.00;71.97;99678.17;2049813;86;29858;-60
2021/12/25 04:02:00;;;;;;;5.22;2.00;;;;;;;-4.02;71.66;99681.23;2049649;86;32431;-60
2021/12/25 04:05:04;;;;;;;7.80;1.87;;;;;;;-4.02;72.09;99689.08;2049810;86;33043;-60
2021/12/25 04:08:07;;;;;;;4.50;1.90;;;;;;;-4.03;72.17;99697.34;2049981;86;29379;-61
2021/12/25 04:11:14;;;;;;;5.08;1.95;;;;;;;-4.02;72.04;99706.08;2050014;86;27618;-59
2021/12/25 04:14:13;;;;;;;4.77;1.63;;;;;;;-4.05;72.09;99719.16;2050244;86;28713;-62
2021/12/25 04:17:15;;;;;;;5.37;1.72;;;;;;;-4.05;72.11;99728.31;2049910;86;31405;-60
2021/12/25 04:20:19;;;;;;;7.83;1.52;;;;;;;-4.07;72.17;99723.09;2018391;88;34181;-60
2021/12/25 04:23:25;;;;;;;10.75;2.40;;;;;;;-4.08;72.06;99729.19;2019415;88;30508;-61
2021/12/25 04:26:26;;;;;;;4.58;1.80;;;;;;;-4.09;72.17;99726.14;2049808;86;27717;-67
2021/12/25 05:02:36;;;;;;;8.60;3.22;;;;;;;-4.42;72.09;99760.52;2008410;88;28571;-65
2021/12/25 05:05:24;;;;;;;5.67;2.02;;;;;;;-4.45;72.21;99766.59;2011604;88;32498;-72
2021/12/25 05:08:26;;;;;;;4.45;2.90;;;;;;;-4.49;72.19;99771.39;1975859;90;33660;-80
2021/12/25 05:11:27;;;;;;;4.75;1.82;;;;;;;-4.53;72.36;99773.55;1975552;90;29508;-79
2021/12/25 05:14:29;;;;;;;8.03;2.98;;;;;;;-4.56;72.40;99779.20;1975560;90;28192;-68
2021/12/25 05:17:31;;;;;;;4.28;2.33;;;;;;;-4.60;72.60;99780.50;1975987;90;28471;-76
2021/12/25 05:20:33;;;;;;;6.58;2.12;;;;;;;-4.60;72.71;99786.14;1975868;90;32196;-77
2021/12/25 05:23:36;;;;;;;7.25;2.77;;;;;;;-4.60;72.58;99788.75;1978211;90;33785;-68
2021/12/25 05:26:38;;;;;;;8.95;2.70;;;;;;;-4.63;72.45;99790.94;1979153;90;30701;-76
2021/12/25 05:29:45;;;;;;;8.65;2.47;;;;;;;-4.66;72.67;99788.75;1976943;90;27752;-77
2021/12/25 05:32:46;;;;;;;6.50;3.17;;;;;;;-4.72;72.76;99793.52;1976773;90;28739;-77
2021/12/25 05:35:48;;;;;;;7.40;2.67;;;;;;;-4.76;72.64;99799.14;1989171;88;31439;-71
2021/12/25 05:38:50;;;;;;;7.10;2.90;;;;;;;-4.82;72.71;99807.39;2011553;88;33003;-77
2021/12/25 05:41:52;;;;;;;6.95;2.75;;;;;;;-4.85;72.83;99827.86;2011883;88;29472;-76
2021/12/25 05:44:54;;;;;;;5.40;2.90;;;;;;;-4.90;72.89;99828.25;2010493;88;27644;-61
2021/12/25 05:47:56;;;;;;;10.95;3.33;;;;;;;-4.95;72.95;99832.56;2009941;88;29199;-68
2021/12/25 05:50:58;;;;;;;10.90;3.80;;;;;;;-5.00;72.94;99833.85;2009901;88;32307;-71
2021/12/25 05:54:03;;;;;;;10.68;3.52;;;;;;;-5.05;72.88;99836.89;2010095;88;33588;-74
2021/12/25 05:57:04;;;;;;;4.12;2.80;;;;;;;-5.11;72.89;99836.39;2007455;88;29779;-67
2021/12/25 06:00:08;;;;;;;6.60;3.05;;;;;;;-5.16;72.77;99849.87;2008152;88;27626;-61
2021/12/25 06:03:10;;;;;;;7.08;3.25;;;;;;;-5.23;72.91;99841.53;2017071;87;28642;-61
2021/12/25 06:06:12;;;;;;;10.13;4.00;;;;;;;-5.28;73.02;99851.95;2043752;87;32079;-63
2021/12/25 06:09:15;;;;;;;8.88;3.02;;;;;;;-5.35;73.03;99834.48;2016405;87;28027;-60
2021/12/25 06:12:17;;;;;;;40.43;17.82;;;;;;;-5.37;73.00;99845.34;2043897;87;29769;-61
2021/12/25 06:15:19;;;;;;;12.15;5.72;;;;;;;-5.43;72.85;99846.61;2044236;87;27681;-65
2021/12/25 06:18:21;;;;;;;9.08;4.22;;;;;;;-5.49;72.96;99859.19;2043874;87;29152;-63
2021/12/25 06:21:23;;;;;;;12.53;4.15;;;;;;;-5.53;73.17;99849.58;2043908;87;32195;-67
2021/12/25 06:24:26;;;;;;;9.60;3.45;;;;;;;-5.57;73.22;99864.34;2043394;87;33983;-75
2021/12/25 06:27:28;;;;;;;12.85;4.25;;;;;;;-5.61;73.29;99865.58;2043876;87;29091;-61
2021/12/25 06:30:30;;;;;;;13.45;4.65;;;;;;;-5.66;73.12;99870.77;2043891;87;27618;-64
2021/12/25 06:33:32;;;;;;;11.18;4.20;;;;;;;-5.70;73.15;99855.52;2043869;87;29063;-64
2021/12/25 06:36:34;;;;;;;10.85;3.83;;;;;;;-5.73;73.07;99866.36;2043663;87;32194;-61
2021/12/25 06:39:36;;;;;;;8.55;3.90;;;;;;;-5.77;73.28;99870.66;2043802;87;33344;-61
2021/12/25 06:42:39;;;;;;;16.25;6.55;;;;;;;-5.77;73.52;99881.53;2016492;88;30418;-61
2021/12/25 06:45:42;;;;;;;18.30;7.28;;;;;;;-5.77;73.64;99881.53;1986950;89;27695;-65
2021/12/25 06:48:44;;;;;;;14.03;6.33;;;;;;;-5.78;73.64;99892.83;1985061;89;28674;-75
2021/12/25 06:51:47;;;;;;;13.08;6.03;;;;;;;-5.79;73.71;99899.80;1991709;88;31414;-61
2021/12/25 06:54:50;;;;;;;7.83;4.33;;;;;;;-5.82;73.56;99904.98;2049647;86;33841;-65
2021/12/25 06:57:54;;;;;;;10.10;5.20;;;;;;;-5.86;73.51;99904.05;2018831;88;29105;-61
2021/12/25 07:00:55;;;;;;;11.25;4.97;;;;;;;-5.89;73.48;99912.27;2019367;88;28227;-60
2021/12/25 07:03:58;;;;;;;17.15;7.40;;;;;;;-5.93;73.47;99911.78;2017692;88;29825;-64
2021/12/25 07:06:59;;;;;;;18.50;7.95;;;;;;;-5.98;73.35;99919.16;2018678;88;31610;-62
2021/12/25 07:10:01;;;;;;;11.35;5.53;;;;;;;-6.02;73.45;99916.09;1986335;89;33896;-73
2021/12/25 07:13:03;;;;;;;15.45;6.80;;;;;;;-6.06;73.49;99914.30;2049943;86;30559;-75
2021/12/25 07:16:05;;;;;;;16.60;8.05;;;;;;;-6.08;73.49;99907.32;2050320;86;27723;-61
2021/12/25 07:19:07;;;;;;;19.50;8.93;;;;;;;-6.12;73.53;99912.50;2050579;86;29017;-63
2021/12/25 07:22:09;;;;;;;28.73;9.80;;;;;;;-6.14;73.52;99918.11;2018946;88;31033;-75
2021/12/25 07:25:11;;;;;;;15.98;7.42;;;;;;;-6.16;73.47;99913.75;2019625;88;34128;-62
2021/12/25 07:28:12;;;;;;;20.40;9.00;;;;;;;-6.19;73.56;99918.92;2050124;86;30588;-61
2021/12/25 07:31:16;;;;;;;14.90;8.33;;;;;;;-6.19;73.61;99921.09;2051518;86;27653;-69
2021/12/25 07:34:17;;;;;;;24.90;10.50;;;;;;;-6.20;73.65;99920.64;2019414;88;28655;-68
2021/12/25 07:37:21;;;;;;;19.10;8.98;;;;;;;-6.21;73.48;99921.94;1987074;88;31493;-76
2021/12/25 07:40:23;;;;;;;21.42;9.23;;;;;;;-6.22;73.62;99925.39;2018331;88;33046;-79
2021/12/25 07:43:25;;;;;;;27.55;10.35;;;;;;;-6.20;73.82;99924.55;2009326;88;30166;-75
2021/12/25 07:46:27;;;;;;;19.00;9.10;;;;;;;-6.19;73.76;99923.70;2008453;87;27745;-79
2021/12/25 07:49:31;;;;;;;26.17;11.48;;;;;;;-6.20;73.80;99932.37;2008822;88;29067;-65
2021/12/25 07:52:32;;;;;;;29.45;13.45;;;;;;;-6.18;73.80;99940.23;2012533;88;31888;-71
2021/12/25 07:55:34;;;;;;;37.05;14.35;;;;;;;-6.18;73.74;99935.88;1977135;90;34260;-69
2021/12/25 07:58:36;;;;;;;37.70;15.83;;;;;;;-6.16;73.79;99938.52;2040677;87;29469;-75
2021/12/25 08:01:38;;;;;;;37.33;14.60;;;;;;;-6.14;73.82;99947.23;2040671;87;27734;-68
2021/12/25 08:04:39;;;;;;;52.58;19.30;;;;;;;-6.11;73.84;99954.66;2040352;87;29882;-62
2021/12/25 08:07:41;;;;;;;60.12;25.57;;;;;;;-6.03;73.89;99959.08;2039987;87;32281;-65
2021/12/25 08:10:44;;;;;;;66.57;25.40;;;;;;;-5.96;74.01;99953.95;2040040;87;33583;-73
2021/12/25 08:13:47;;;;;;;80.35;32.10;;;;;;;-5.89;74.06;99954.90;2040456;87;30233;-70
2021/12/25 08:16:48;;;;;;;69.85;31.60;;;;;;;-5.82;74.17;99954.09;2040443;87;28224;-71
2021/12/25 08:19:51;;;;;;;73.52;31.15;;;;;;;-5.71;74.29;99957.27;2040025;87;29946;-76
2021/12/25 08:22:52;;;;;;;71.97;34.25;;;;;;;-5.61;74.32;99968.24;2040072;87;31513;-74
2021/12/25 08:25:54;;;;;;;67.05;29.92;;;;;;;-5.54;74.32;99979.62;2040364;87;33333;-75
2021/12/25 08:28:56;;;;;;;88.50;35.23;;;;;;;-5.46;74.40;99979.28;2040758;87;29822;-77
2021/12/25 08:31:59;;;;;;;93.12;39.58;;;;;;;-5.36;74.41;99975.00;2018212;87;27743;-71
2021/12/25 08:35:01;;;;;;;105.78;44.80;;;;;;;-5.27;74.39;99974.22;2041098;87;29229;-70
2021/12/25 08:38:03;;;;;;;70.35;30.72;;;;;;;-5.22;74.29;99977.76;2042430;87;31424;-78
2021/12/25 08:41:05;;;;;;;78.17;35.10;;;;;;;-5.13;74.22;99976.97;2041563;87;33341;-72
2021/12/25 08:44:29;;;;;;;87.37;40.20;;;;;;;-5.01;74.29;99982.73;2038079;87;30602;-79
2021/12/25 08:47:12;;;;;;;57.35;21.68;;;;;;;-4.86;74.29;99978.05;2034992;87;27703;-62
2021/12/25 08:50:14;;;;;;;49.93;22.22;;;;;;;-4.75;74.22;99973.80;2038249;87;28656;-73
2021/12/25 08:53:18;;;;;;;50.05;19.23;;;;;;;-4.61;74.14;99977.80;2038515;87;31023;-75
2021/12/25 08:56:20;;;;;;;29.43;10.60;;;;;;;-4.51;74.05;99976.13;2038497;87;33132;-71
2021/12/25 08:59:22;;;;;;;25.70;10.45;;;;;;;-4.41;73.84;99983.19;2038651;87;29714;-72
2021/12/25 09:02:25;;;;;;;27.13;11.05;;;;;;;-4.34;73.81;99981.48;2038778;87;27705;-70
2021/12/25 09:05:27;;;;;;;44.83;16.62;;;;;;;-4.25;73.75;99984.14;2038571;87;29218;-60
2021/12/25 09:08:30;;;;;;;42.17;15.72;;;;;;;-4.15;73.73;99981.14;2038334;87;30480;-60
2021/12/25 09:11:34;;;;;;;28.60;10.45;;;;;;;-4.04;73.72;99979.89;2038166;87;33030;-61
2021/12/25 09:14:37;;;;;;;19.50;5.90;;;;;;;-3.94;73.33;99981.67;2038265;87;29408;-61
2021/12/25 09:17:42;;;;;;;10.88;4.35;;;;;;;-3.85;73.11;99984.34;2013218;88;27625;-69
2021/12/25 09:20:44;;;;;;;12.00;4.42;;;;;;;-3.75;72.95;99985.67;1981048;89;28805;-67
2021/12/25 09:23:46;;;;;;;13.88;4.80;;;;;;;-3.68;72.59;99975.67;2013616;87;32160;-66
2021/12/25 09:26:48;;;;;;;15.10;6.30;;;;;;;-3.60;72.55;99978.31;2011499;88;34209;-70
2021/12/25 09:29:50;;;;;;;18.90;6.70;;;;;;;-3.54;72.36;99979.20;2013279;88;29698;-65
2021/12/25 09:32:52;;;;;;;28.50;10.18;;;;;;;-3.47;72.33;99972.23;2013392;88;27715;-61
2021/12/25 09:35:54;;;;;;;13.98;5.45;;;;;;;-3.43;71.81;99972.69;2038428;87;28573;-64
2021/12/25 09:38:56;;;;;;;9.40;5.37;;;;;;;-3.40;71.58;99979.67;2012751;88;32487;-73
2021/12/25 09:41:57;;;;;;;11.90;5.92;;;;;;;-3.35;71.90;99983.18;2014019;88;34118;-69
2021/12/25 09:45:00;;;;;;;16.00;6.58;;;;;;;-3.27;71.86;99980.13;2046472;87;29749;-62
2021/12/25 09:48:01;;;;;;;24.67;11.73;;;;;;;-3.19;71.81;99980.58;2046597;87;27697;-68
2021/12/25 09:51:05;;;;;;;21.37;9.48;;;;;;;-3.14;71.53;99982.78;2046408;87;29867;-60
2021/12/25 09:54:11;;;;;;;28.38;12.47;;;;;;;-3.12;71.31;99981.91;2046462;87;30611;-60
2021/12/25 09:57:14;;;;;;;23.27;10.48;;;;;;;-3.09;71.19;99982.33;2046615;87;32892;-60
2021/12/25 10:00:22;;;;;;;11.78;5.75;;;;;;;-3.07;71.16;99976.66;2046288;87;29813;-62
2021/12/25 10:03:27;;;;;;;15.40;5.47;;;;;;;-3.02;70.83;99985.83;2046700;87;27728;-61
2021/12/25 10:06:40;;;;;;;19.12;6.72;;;;;;;-3.06;70.14;99990.20;2046076;87;29497;-71
2021/12/25 10:09:42;;;;;;;28.05;11.18;;;;;;;-3.07;70.54;99988.45;2046291;87;32366;-74
2021/12/25 10:12:48;;;;;;;30.97;11.63;;;;;;;-3.05;70.35;99990.19;2046170;87;34221;-71
2021/12/25 10:16:00;;;;;;;28.15;13.50;;;;;;;-3.05;70.11;99991.50;2046499;87;29381;-61
2021/12/25 10:19:20;;;;;;;19.17;8.35;;;;;;;-3.09;69.46;99987.57;2046680;86;27720;-62
2021/12/25 10:22:22;;;;;;;24.10;10.18;;;;;;;-3.10;69.46;99987.13;2009839;88;28717;-68
2021/12/25 10:25:32;;;;;;;22.30;8.70;;;;;;;-3.12;69.34;99988.88;2009469;88;31450;-60
2021/12/25 10:28:37;;;;;;;26.35;10.23;;;;;;;-3.15;69.09;99982.34;2009267;88;32979;-66
2021/12/25 10:31:39;;;;;;;26.37;9.35;;;;;;;-3.16;69.54;99980.59;2009708;88;30261;-71
2021/12/25 10:34:40;;;;;;;25.95;9.85;;;;;;;-3.16;69.41;99972.73;2009442;88;27764;-70
2021/12/25 10:37:44;;;;;;;33.05;11.45;;;;;;;-3.15;69.16;99973.17;2009012;88;29140;-72
2021/12/25 10:40:46;;;;;;;30.45;10.63;;;;;;;-3.17;69.05;99974.91;2009304;88;31931;-71
2021/12/25 10:43:52;;;;;;;16.77;6.42;;;;;;;-3.21;69.07;99974.91;2009016;88;32798;-66
2021/12/25 10:47:15;;;;;;;38.88;14.63;;;;;;;-3.24;68.91;99970.97;2043726;87;30247;-65
2021/12/25 10:50:18;;;;;;;28.42;10.48;;;;;;;-3.22;69.32;99977.50;2043992;87;27821;-71
2021/12/25 10:53:29;;;;;;;18.35;7.28;;;;;;;-3.18;69.13;99977.09;2043805;87;29473;-71
2021/12/25 10:56:39;;;;;;;20.70;8.95;;;;;;;-3.13;69.38;99976.64;2009744;88;31044;-70
2021/12/25 10:59:47;;;;;;;20.23;7.58;;;;;;;-3.05;69.25;99975.78;2009110;88;32427;-71
2021/12/25 11:03:05;;;;;;;19.37;7.95;;;;;;;-2.98;69.06;99969.23;2009155;88;29143;-64
2021/12/25 11:06:17;;;;;;;20.70;8.93;;;;;;;-2.88;69.59;99968.36;2008562;88;27707;-71
2021/12/25 11:09:19;;;;;;;22.82;10.00;;;;;;;-2.78;69.12;99963.56;2043695;87;29581;-63
2021/12/25 11:12:23;;;;;;;15.98;6.22;;;;;;;-2.60;69.14;99978.84;2043419;87;31650;-72
2021/12/25 11:15:32;;;;;;;10.72;5.53;;;;;;;-2.40;68.95;99986.68;2043220;87;34016;-69
2021/12/25 11:19:05;;;;;;;15.08;5.97;;;;;;;-2.25;67.93;99991.03;2009352;88;30163;-67
2021/12/25 11:22:05;;;;;;;24.40;12.13;;;;;;;-2.11;67.71;99980.48;2009515;88;28093;-62
2021/12/25 11:25:09;;;;;;;21.70;10.75;;;;;;;-1.99;67.51;99966.03;2008930;88;29994;-60
2021/12/25 11:28:13;;;;;;;9.88;3.30;;;;;;;-1.88;67.01;99980.85;2009756;88;31890;-65
2021/12/25 11:31:15;;;;;;;18.07;9.08;;;;;;;-1.75;67.24;99985.63;2009894;88;32981;-69
2021/12/25 11:34:19;;;;;;;16.27;8.48;;;;;;;-1.61;67.22;99971.09;2009496;88;30587;-62
2021/12/25 11:37:21;;;;;;;22.55;7.47;;;;;;;-1.49;66.04;99969.73;2009650;88;27730;-62
2021/12/25 11:40:26;;;;;;;24.85;12.55;;;;;;;-1.42;66.57;99962.23;2010124;88;28852;-71
2021/12/25 11:43:40;;;;;;;17.15;9.23;;;;;;;-1.33;66.52;99956.05;2012029;88;31058;-60
2021/12/25 11:46:45;;;;;;;10.53;4.50;;;;;;;-1.29;65.01;99965.67;2014533;88;33805;-61
2021/12/25 11:49:56;;;;;;;22.98;11.10;;;;;;;-1.31;65.78;99970.48;2014891;88;29270;-61
2021/12/25 11:53:27;;;;;;;9.80;4.97;;;;;;;-1.31;65.84;99977.05;2014714;88;27713;-61
2021/12/25 11:56:43;;;;;;;11.60;5.08;;;;;;;-1.30;65.68;99981.00;2010966;88;28837;-61
2021/12/25 11:59:48;;;;;;;11.50;4.67;;;;;;;-1.20;65.47;99975.67;2014505;88;32267;-62
2021/12/25 12:02:50;;;;;;;19.48;8.55;;;;;;;-1.22;65.54;99964.72;2014831;88;33736;-71
2021/12/25 12:05:52;;;;;;;25.88;13.00;;;;;;;-1.13;64.87;99965.56;2014706;88;30652;-62
2021/12/25 12:08:59;;;;;;;13.55;6.05;;;;;;;-1.14;65.60;99979.58;2014961;88;27624;-61
2021/12/25 12:12:14;;;;;;;13.55;5.25;;;;;;;-1.09;65.58;99979.12;1975218;90;28553;-61
2021/12/25 12:15:19;;;;;;;27.40;10.43;;;;;;;-1.05;65.49;99985.22;1975637;90;31066;-61
2021/12/25 12:18:34;;;;;;;15.05;6.60;;;;;;;-1.04;64.77;99984.34;1975465;90;33814;-64
2021/12/25 12:21:39;;;;;;;26.15;11.40;;;;;;;-1.03;65.11;99983.45;1975598;90;29757;-70
2021/12/25 12:24:46;;;;;;;19.60;9.85;;;;;;;-1.05;64.64;99990.02;1975027;90;27609;-62
2021/12/25 12:27:51;;;;;;;26.05;12.20;;;;;;;-1.10;64.44;99983.94;1975248;90;29676;-60
2021/12/25 12:30:53;;;;;;;24.15;10.35;;;;;;;-1.24;64.16;99991.45;1974917;90;32302;-60
2021/12/25 12:33:55;;;;;;;18.70;9.23;;;;;;;-1.34;63.76;99984.52;1975518;90;33324;-60
2021/12/25 12:37:20;;;;;;;14.93;7.15;;;;;;;-1.45;64.06;99993.77;1975052;90;31620;-61
2021/12/25 12:40:26;;;;;;;14.38;6.10;;;;;;;-1.46;64.72;99994.65;1975646;90;27784;-62
2021/12/25 12:43:57;;;;;;;8.68;4.20;;;;;;;-1.44;64.15;100007.34;1974368;89;29868;-68
2021/12/25 12:47:06;;;;;;;18.40;6.55;;;;;;;-1.53;64.29;99992.50;1940061;91;31207;-66
2021/12/25 12:50:11;;;;;;;12.75;5.70;;;;;;;-1.52;64.13;100003.90;1936771;91;33795;-61
2021/12/25 12:53:13;;;;;;;;;;;;;;;-1.56;64.56;100009.58;1918802;91;29533;-61
2021/12/25 12:56:21;;;;;;;14.18;6.05;;;;;;;-1.61;64.11;100006.55;1935763;91;27855;-64
2021/12/25 12:59:20;;;;;;;17.90;7.10;;;;;;;-1.66;64.07;100008.34;1935492;91;29503;-60
2021/12/25 13:02:24;;;;;;;16.50;6.70;;;;;;;-1.74;64.39;100010.55;1935770;91;31880;-60
2021/12/25 13:05:34;;;;;;;11.93;5.60;;;;;;;-1.75;64.63;100001.38;1936029;91;33219;-60
2021/12/25 13:08:38;;;;;;;11.20;4.50;;;;;;;-1.71;64.63;99997.84;1935723;91;30739;-61
2021/12/25 13:11:53;;;;;;;13.32;5.40;;;;;;;-1.73;64.62;100006.16;1936037;91;27765;-63
2021/12/25 13:15:05;;;;;;;17.42;7.75;;;;;;;-1.79;64.58;100024.13;1935931;91;29143;-60
2021/12/25 13:18:08;;;;;;;12.95;5.40;;;;;;;-1.84;64.71;100016.27;1935886;91;31239;-60
2021/12/25 13:21:14;;;;;;;12.40;4.92;;;;;;;-1.85;64.93;100014.98;1935747;91;33369;-60
2021/12/25 13:24:16;;;;;;;20.55;9.40;;;;;;;-1.95;64.54;100011.51;1989179;88;30316;-60
2021/12/25 13:27:19;;;;;;;11.73;4.87;;;;;;;-2.02;64.64;100017.22;2009188;88;27631;-60
2021/12/25 13:30:21;;;;;;;13.72;6.40;;;;;;;-2.10;64.45;100021.59;2009465;88;28682;-59
2021/12/25 13:33:25;;;;;;;12.13;5.67;;;;;;;-2.22;64.61;100022.48;2043784;87;31416;-60
2021/12/25 13:36:33;;;;;;;12.10;5.90;;;;;;;-2.27;64.87;100025.58;2043853;87;32969;-61
2021/12/25 13:39:39;;;;;;;28.73;12.10;;;;;;;-2.31;64.95;100029.94;2009864;88;30559;-60
2021/12/25 13:42:42;;;;;;;27.22;10.23;;;;;;;-2.37;64.88;100033.01;2009232;88;27715;-61
2021/12/25 13:45:44;;;;;;;101.50;33.83;;;;;;;-2.43;64.90;100032.58;2014601;88;28683;-60
2021/12/25 13:48:46;;;;;;;185.20;60.95;;;;;;;-2.51;64.84;100042.22;2014304;88;32340;-60
2021/12/25 13:51:48;;;;;;;36.60;15.72;;;;;;;-2.60;64.82;100050.96;2014673;88;33953;-60
2021/12/25 13:55:16;;;;;;;25.68;11.53;;;;;;;-2.73;64.89;100042.21;2014885;88;30642;-61
2021/12/25 13:58:19;;;;;;;30.92;12.30;;;;;;;-2.78;65.35;100034.34;2014522;88;27625;-61
2021/12/25 14:01:21;;;;;;;19.95;10.28;;;;;;;-2.79;65.57;100043.50;2014336;88;29592;-61
2021/12/25 14:04:23;;;;;;;33.48;15.75;;;;;;;-2.85;65.65;100047.00;2014915;88;31341;-69
2021/12/25 14:07:28;;;;;;;48.08;20.85;;;;;;;-2.92;65.69;100057.91;2014313;88;34209;-61
2021/12/25 14:10:32;;;;;;;32.73;15.70;;;;;;;-2.99;65.83;100067.97;2014761;88;30565;-62
2021/12/25 14:13:36;;;;;;;36.48;16.50;;;;;;;-3.09;65.76;100073.63;2014964;88;27729;-61
2021/12/25 14:16:38;;;;;;;29.18;13.68;;;;;;;-3.17;65.89;100067.47;2014556;88;28768;-61
2021/12/25 14:19:40;;;;;;;32.90;12.85;;;;;;;-3.28;65.62;100063.50;2014595;88;31516;-61
2021/12/25 14:22:47;;;;;;;47.08;18.23;;;;;;;-3.36;65.82;100065.24;2014664;88;34130;-68
2021/12/25 14:26:00;;;;;;;51.50;19.00;;;;;;;-3.46;65.64;100077.42;2014590;88;30173;-61
2021/12/25 14:29:02;;;;;;;48.80;20.30;;;;;;;-3.57;65.80;100068.66;2014768;88;27703;-64
2021/12/25 14:32:25;;;;;;;48.68;20.17;;;;;;;-3.67;66.20;100069.91;2014315;88;30014;-61
2021/12/25 14:35:27;;;;;;;41.75;18.15;;;;;;;-3.74;66.19;100066.84;1994317;88;32566;-65
2021/12/25 14:38:44;;;;;;;39.50;16.05;;;;;;;-3.83;66.19;100074.63;2014662;88;34264;-61
2021/12/25 14:41:47;;;;;;;40.50;17.77;;;;;;;-3.94;66.42;100082.41;2014616;88;29414;-61
2021/12/25 14:44:58;;;;;;;37.63;16.30;;;;;;;-4.02;66.73;100085.42;2011198;88;27802;-62
2021/12/25 14:48:00;;;;;;;39.08;18.07;;;;;;;-4.13;66.73;100083.59;2008899;88;30156;-62
2021/12/25 14:51:12;;;;;;;39.90;18.37;;;;;;;-4.22;66.91;100090.53;2009158;88;32166;-61
2021/12/25 14:54:15;;;;;;;29.15;16.35;;;;;;;-4.34;67.01;100089.55;2009741;88;33973;-61
2021/12/25 14:57:25;;;;;;;38.38;18.37;;;;;;;-4.44;67.14;100105.59;1979230;88;29753;-62
2021/12/25 15:00:27;;;;;;;47.15;19.25;;;;;;;-4.55;67.21;100106.39;2009031;88;27815;-60
2021/12/25 15:03:30;;;;;;;46.80;19.85;;;;;;;-4.65;67.39;100101.06;2009870;88;28912;-61
2021/12/25 15:06:33;;;;;;;75.65;32.90;;;;;;;-4.75;67.46;100105.77;2008933;88;31898;-64
2021/12/25 15:09:39;;;;;;;93.82;35.95;;;;;;;-4.86;67.68;100113.50;2009497;88;34432;-61
2021/12/25 15:12:42;;;;;;;54.40;23.55;;;;;;;-4.96;67.84;100098.16;2009570;88;29411;-62
2021/12/25 15:15:54;;;;;;;50.43;22.67;;;;;;;-5.05;67.85;100101.99;2009603;88;27748;-62
2021/12/25 15:18:56;;;;;;;47.78;21.50;;;;;;;-5.15;67.95;100118.41;2007780;88;28844;-62